Time;durP1;ratioP1;P1;durP2;ratioP2;P2;SDS_P1;SDS_P2;PMS_P1;PMS_P2;Temp;Humidity;BMP_temperature;BMP_pressure;BME280_temperature;BME280_humidity;BME280_pressure;Samples;Min_cycle;Max_cycle;Signal;HPM_P1;HPM_P2
2023/08/17 00:00:12;;;;;;;1999.90;999.90;;;19.90;99.90;;;;;;5055880;28;20200;-74
2023/08/17 00:02:38;;;;;;;1999.90;999.90;;;19.90;99.90;;;;;;5055716;28;20173;-74
2023/08/17 00:05:06;;;;;;;1999.90;999.90;;;19.80;99.90;;;;;;5056102;28;20429;-74
2023/08/17 00:07:32;;;;;;;1999.90;999.90;;;19.80;99.90;;;;;;5055320;28;20463;-75
2023/08/17 00:09:57;;;;;;;1999.90;999.90;;;19.80;99.90;;;;;;5055248;28;20402;-75
2023/08/17 00:12:24;;;;;;;1999.90;999.90;;;19.80;99.90;;;;;;5054857;28;20925;-74
2023/08/17 00:14:51;;;;;;;1999.90;999.90;;;19.80;99.90;;;;;;5055051;28;20192;-75
2023/08/17 00:17:16;;;;;;;1999.90;999.90;;;19.80;99.90;;;;;;5055074;28;20438;-74
2023/08/17 00:19:42;;;;;;;1999.90;999.90;;;19.90;99.90;;;;;;5055171;28;20440;-74
2023/08/17 00:22:08;;;;;;;1999.90;999.90;;;19.90;99.90;;;;;;5054758;28;20217;-75
2023/08/17 00:24:33;;;;;;;1999.90;999.90;;;19.90;99.90;;;;;;5054684;28;20208;-74
2023/08/17 00:26:59;;;;;;;1999.90;999.90;;;19.90;99.90;;;;;;5054577;28;20181;-74
2023/08/17 00:29:24;;;;;;;1999.90;999.90;;;20.00;99.90;;;;;;5054827;28;20269;-75
2023/08/17 00:31:51;;;;;;;1999.90;999.90;;;20.00;99.90;;;;;;5054366;28;20175;-75
2023/08/17 00:34:16;;;;;;;1999.90;999.90;;;20.00;99.90;;;;;;5054609;28;20196;-75
2023/08/17 00:36:42;;;;;;;1999.90;999.90;;;20.00;99.90;;;;;;5054369;28;20421;-74
2023/08/17 00:39:07;;;;;;;1999.90;999.90;;;20.00;99.90;;;;;;5054628;28;20169;-74
2023/08/17 00:41:33;;;;;;;1999.90;999.90;;;20.00;99.90;;;;;;5054283;28;20167;-74
2023/08/17 00:44:00;;;;;;;1999.90;999.90;;;19.90;99.90;;;;;;5053872;28;20284;-75
2023/08/17 00:46:26;;;;;;;1999.90;999.90;;;19.90;99.90;;;;;;5054706;28;20161;-74
2023/08/17 00:48:54;;;;;;;1999.90;999.90;;;19.90;99.90;;;;;;5054854;28;20407;-74
2023/08/17 00:51:21;;;;;;;1999.90;999.90;;;19.90;99.90;;;;;;5054313;28;20409;-74
2023/08/17 00:53:47;;;;;;;1999.90;999.90;;;19.90;99.90;;;;;;5054700;28;20426;-75
2023/08/17 00:56:13;;;;;;;1999.90;999.90;;;19.90;99.90;;;;;;5054293;28;20410;-75
2023/08/17 00:58:39;;;;;;;1999.90;999.90;;;19.80;99.90;;;;;;5055022;28;20168;-75
2023/08/17 01:01:04;;;;;;;1999.90;999.90;;;19.80;99.90;;;;;;5055248;28;20171;-74
2023/08/17 01:03:30;;;;;;;1999.90;999.90;;;19.80;99.90;;;;;;5054278;28;20558;-75
2023/08/17 01:05:57;;;;;;;1999.90;999.90;;;19.80;99.90;;;;;;5053853;28;20167;-75
2023/08/17 01:08:23;;;;;;;1999.90;999.90;;;19.80;99.90;;;;;;5054360;28;20885;-75
2023/08/17 01:11:02;;;;;;;1999.90;999.90;;;19.80;99.90;;;;;;5054181;28;20454;-74
2023/08/17 01:13:53;;;;;;;1999.90;999.90;;;19.70;99.90;;;;;;5054235;28;20914;-75
2023/08/17 01:16:27;;;;;;;1999.90;999.90;;;19.60;99.90;;;;;;5054400;28;20410;-74
2023/08/17 01:18:54;;;;;;;1999.90;999.90;;;19.60;99.90;;;;;;5054716;28;20440;-75
2023/08/17 01:21:24;;;;;;;1999.90;999.90;;;19.60;99.90;;;;;;5053796;28;20476;-75
2023/08/17 01:23:51;;;;;;;1999.90;999.90;;;19.60;99.90;;;;;;5053999;28;20485;-75
2023/08/17 01:26:16;;;;;;;1999.90;999.90;;;19.50;99.90;;;;;;5053937;28;20405;-75
2023/08/17 01:28:47;;;;;;;1999.90;999.90;;;19.40;99.90;;;;;;5053531;28;20418;-74
2023/08/17 01:31:23;;;;;;;1999.90;999.90;;;19.40;99.90;;;;;;5053689;28;20171;-75
2023/08/17 01:33:56;;;;;;;1999.90;999.90;;;19.50;99.90;;;;;;5053244;28;20496;-75
2023/08/17 01:36:45;;;;;;;1999.90;999.90;;;19.40;99.90;;;;;;5053351;28;20406;-75
2023/08/17 01:39:11;;;;;;;1999.90;999.90;;;19.50;99.90;;;;;;5053467;28;20448;-75
2023/08/17 01:41:38;;;;;;;1999.90;999.90;;;19.50;99.90;;;;;;5052730;28;20406;-75
2023/08/17 01:44:05;;;;;;;1999.90;999.90;;;19.50;99.90;;;;;;5052968;28;20849;-75
2023/08/17 01:46:32;;;;;;;1999.90;999.90;;;19.50;99.90;;;;;;5053293;28;20402;-75
2023/08/17 01:48:58;;;;;;;1999.90;999.90;;;19.50;99.90;;;;;;5053045;28;20405;-75
2023/08/17 01:51:25;;;;;;;1999.90;999.90;;;19.60;99.90;;;;;;5053614;28;20409;-75
2023/08/17 01:53:50;;;;;;;1999.90;999.90;;;19.60;99.90;;;;;;5054460;28;20206;-73
2023/08/17 01:56:16;;;;;;;1999.90;999.90;;;19.60;99.90;;;;;;5054485;28;20499;-75
2023/08/17 01:58:42;;;;;;;1999.90;999.90;;;19.60;99.90;;;;;;5054466;28;20830;-74
2023/08/17 02:01:07;;;;;;;1999.90;999.90;;;19.60;99.90;;;;;;5054468;28;20175;-74
2023/08/17 02:03:33;;;;;;;1999.90;999.90;;;19.40;99.90;;;;;;5053786;28;20198;-74
2023/08/17 02:05:59;;;;;;;1999.90;999.90;;;19.40;99.90;;;;;;5054484;28;20534;-74
2023/08/17 02:08:25;;;;;;;1999.90;999.90;;;19.40;99.90;;;;;;5054196;28;20178;-73
2023/08/17 02:10:51;;;;;;;1999.90;999.90;;;19.40;99.90;;;;;;5054112;28;20426;-75
2023/08/17 02:13:17;;;;;;;1999.90;999.90;;;19.50;99.90;;;;;;5053872;28;20202;-74
2023/08/17 02:15:43;;;;;;;1999.90;999.90;;;19.50;99.90;;;;;;5054367;28;20159;-74
2023/08/17 02:18:09;;;;;;;1999.90;999.90;;;19.50;99.90;;;;;;5054402;28;20438;-74
2023/08/17 02:20:34;;;;;;;1999.90;999.90;;;19.50;99.90;;;;;;5054403;28;20632;-74
2023/08/17 02:23:00;;;;;;;1999.90;999.90;;;19.60;99.90;;;;;;5054436;28;20203;-74
2023/08/17 02:25:27;;;;;;;1999.90;999.90;;;19.60;99.90;;;;;;5054546;28;20431;-74
2023/08/17 02:27:52;;;;;;;1999.90;999.90;;;19.70;99.90;;;;;;5055366;28;20197;-74
2023/08/17 02:30:18;;;;;;;1999.90;999.90;;;19.70;99.90;;;;;;5054428;28;20896;-74
2023/08/17 02:32:44;;;;;;;1999.90;999.90;;;19.70;99.90;;;;;;5054245;28;20562;-74
2023/08/17 02:35:10;;;;;;;1999.90;999.90;;;19.70;99.90;;;;;;5054762;28;20609;-74
2023/08/17 02:37:36;;;;;;;1999.90;999.90;;;19.80;99.90;;;;;;5054483;28;20165;-73
2023/08/17 02:40:01;;;;;;;1999.90;999.90;;;19.80;99.90;;;;;;5054594;28;20404;-74
2023/08/17 02:42:27;;;;;;;1999.90;999.90;;;19.80;99.90;;;;;;5054254;28;20574;-74
2023/08/17 02:44:52;;;;;;;1999.90;999.90;;;19.80;99.90;;;;;;5054200;28;20622;-74
2023/08/17 02:47:18;;;;;;;1999.90;999.90;;;19.80;99.90;;;;;;5054718;28;20248;-74
2023/08/17 02:49:44;;;;;;;1999.90;999.90;;;19.80;99.90;;;;;;5054598;28;20169;-75
2023/08/17 02:52:09;;;;;;;1999.90;999.90;;;19.70;99.90;;;;;;5054069;28;20222;-75
2023/08/17 02:54:35;;;;;;;1999.90;999.90;;;19.70;99.90;;;;;;5054200;28;20656;-74
2023/08/17 02:57:00;;;;;;;1999.90;999.90;;;19.60;99.90;;;;;;5054034;28;20209;-74
2023/08/17 02:59:26;;;;;;;1999.90;999.90;;;19.60;99.90;;;;;;5054386;28;20170;-73
2023/08/17 03:01:53;;;;;;;1999.90;999.90;;;19.40;99.90;;;;;;5053494;28;20208;-74
2023/08/17 03:04:18;;;;;;;1999.90;999.90;;;19.30;99.90;;;;;;5052510;28;20203;-74
2023/08/17 03:06:44;;;;;;;1999.90;999.90;;;19.20;99.90;;;;;;5051620;28;20402;-74
2023/08/17 03:09:10;;;;;;;1999.90;999.90;;;19.20;99.90;;;;;;5051438;28;20242;-74
2023/08/17 03:11:36;;;;;;;1999.90;999.90;;;19.10;99.90;;;;;;5051237;28;20233;-74
2023/08/17 03:14:02;;;;;;;1999.90;999.90;;;19.10;99.90;;;;;;5051408;28;20856;-74
2023/08/17 03:16:29;;;;;;;1999.90;999.90;;;19.00;99.90;;;;;;5051534;28;20183;-74
2023/08/17 03:18:55;;;;;;;1999.90;999.90;;;19.00;99.90;;;;;;5051359;28;20958;-74
2023/08/17 03:21:21;;;;;;;1999.90;999.90;;;19.00;99.90;;;;;;5051028;28;20493;-73
2023/08/17 03:23:47;;;;;;;1999.90;999.90;;;19.00;99.90;;;;;;5051234;28;20205;-73
2023/08/17 03:26:15;;;;;;;1999.90;999.90;;;18.90;99.90;;;;;;5051376;28;20178;-74
2023/08/17 03:28:41;;;;;;;1999.90;999.90;;;18.90;99.90;;;;;;5051318;28;20779;-73
2023/08/17 03:31:10;;;;;;;1999.90;999.90;;;18.90;99.90;;;;;;5054769;28;20402;-73
2023/08/17 03:33:36;;;;;;;1999.90;999.90;;;18.90;99.90;;;;;;5055009;28;20187;-74
2023/08/17 03:36:02;;;;;;;1999.90;999.90;;;18.80;99.90;;;;;;5054931;28;20957;-74
2023/08/17 03:38:28;;;;;;;1999.90;999.90;;;18.70;99.90;;;;;;5054710;28;20178;-74
2023/08/17 03:40:54;;;;;;;1999.90;999.90;;;18.80;99.90;;;;;;5054696;28;20746;-74
2023/08/17 03:43:20;;;;;;;1999.90;999.90;;;18.80;99.90;;;;;;5054546;28;20262;-74
2023/08/17 03:45:45;;;;;;;1999.90;999.90;;;18.70;99.90;;;;;;5054847;28;20904;-73
2023/08/17 03:48:11;;;;;;;1999.90;999.90;;;18.70;99.90;;;;;;5054610;28;20212;-74
2023/08/17 03:50:37;;;;;;;1999.90;999.90;;;18.60;99.90;;;;;;5054673;28;20649;-74
2023/08/17 03:53:03;;;;;;;1999.90;999.90;;;18.50;99.90;;;;;;5054289;28;20412;-74
2023/08/17 03:55:28;;;;;;;1999.90;999.90;;;18.50;99.90;;;;;;5054518;28;20217;-74
2023/08/17 03:57:54;;;;;;;1999.90;999.90;;;18.40;99.90;;;;;;5054453;28;20180;-74
2023/08/17 04:00:19;;;;;;;1999.90;999.90;;;18.40;99.90;;;;;;5054486;28;20297;-73
2023/08/17 04:02:45;;;;;;;1999.90;999.90;;;18.30;99.90;;;;;;5054088;28;20709;-74
2023/08/17 04:05:10;;;;;;;1999.90;999.90;;;18.30;99.90;;;;;;5054283;28;20201;-73
2023/08/17 04:07:36;;;;;;;1999.90;999.90;;;18.20;99.90;;;;;;5054390;28;20171;-73
2023/08/17 04:10:03;;;;;;;1999.90;999.90;;;18.30;99.90;;;;;;5054265;28;20639;-73
2023/08/17 04:12:29;;;;;;;1999.90;999.90;;;18.20;99.90;;;;;;5053147;28;20486;-74
2023/08/17 04:14:54;;;;;;;1999.90;999.90;;;18.30;99.90;;;;;;5053974;28;20916;-74
2023/08/17 04:17:21;;;;;;;1999.90;999.90;;;18.30;99.90;;;;;;5054148;28;20172;-73
2023/08/17 04:19:47;;;;;;;1999.90;999.90;;;18.30;99.90;;;;;;5054062;28;20183;-74
2023/08/17 04:22:12;;;;;;;1999.90;999.90;;;18.30;99.90;;;;;;5053735;28;20494;-74
2023/08/17 04:24:39;;;;;;;1999.90;999.90;;;18.30;99.90;;;;;;5053836;28;20206;-74
2023/08/17 04:27:05;;;;;;;1999.90;999.90;;;18.20;99.90;;;;;;5054168;28;20601;-73
2023/08/17 04:29:31;;;;;;;1999.90;999.90;;;18.20;99.90;;;;;;5053893;28;20452;-74
2023/08/17 04:31:57;;;;;;;1999.90;999.90;;;18.20;99.90;;;;;;5053616;28;20164;-73
2023/08/17 04:34:24;;;;;;;1999.90;999.90;;;18.10;99.90;;;;;;5053824;28;20429;-74
2023/08/17 04:36:49;;;;;;;1999.90;999.90;;;18.00;99.90;;;;;;5053893;28;20903;-74
2023/08/17 04:39:15;;;;;;;1999.90;999.90;;;18.00;99.90;;;;;;5053821;28;20413;-73
2023/08/17 04:41:41;;;;;;;1999.90;999.90;;;17.90;99.90;;;;;;5052940;28;20785;-74
2023/08/17 04:44:06;;;;;;;1999.90;999.90;;;17.90;99.90;;;;;;5053453;28;20216;-73
2023/08/17 04:46:32;;;;;;;1999.90;999.90;;;17.90;99.90;;;;;;5053708;28;20196;-73
2023/08/17 04:48:57;;;;;;;1999.90;999.90;;;17.90;99.90;;;;;;5054661;28;20171;-74
2023/08/17 04:51:23;;;;;;;1999.90;999.90;;;17.90;99.90;;;;;;5053976;28;20168;-74
2023/08/17 04:53:48;;;;;;;1999.90;999.90;;;17.90;99.90;;;;;;5054746;28;20197;-74
2023/08/17 04:56:14;;;;;;;1999.90;999.90;;;18.00;99.90;;;;;;5054773;28;20175;-74
2023/08/17 04:58:39;;;;;;;1999.90;999.90;;;18.00;99.90;;;;;;5055711;28;20174;-74
2023/08/17 05:01:05;;;;;;;1999.90;999.90;;;18.10;99.90;;;;;;5054783;28;20252;-73
2023/08/17 05:03:31;;;;;;;1999.90;999.90;;;18.20;99.90;;;;;;5053185;28;20213;-73
2023/08/17 05:05:56;;;;;;;1999.90;999.90;;;18.20;99.90;;;;;;5053251;28;20170;-73
2023/08/17 05:08:22;;;;;;;1999.90;999.90;;;18.30;99.90;;;;;;5053250;28;20278;-73
2023/08/17 05:10:48;;;;;;;1999.90;999.90;;;18.30;99.90;;;;;;5053172;28;20162;-73
2023/08/17 05:13:13;;;;;;;1999.90;999.90;;;18.40;99.90;;;;;;5052939;28;20164;-73
2023/08/17 05:15:39;;;;;;;1999.90;999.90;;;18.40;99.90;;;;;;5052972;28;20489;-74
2023/08/17 05:18:05;;;;;;;1999.90;999.90;;;18.40;99.90;;;;;;5053005;28;20177;-74
2023/08/17 05:20:30;;;;;;;1999.90;999.90;;;18.30;99.90;;;;;;5053017;28;20172;-73
2023/08/17 05:22:56;;;;;;;1999.90;999.90;;;18.40;99.90;;;;;;5052661;28;20175;-73
2023/08/17 05:25:22;;;;;;;1999.90;999.90;;;18.50;99.90;;;;;;5052835;28;20284;-74
2023/08/17 05:27:49;;;;;;;1999.90;999.90;;;18.50;99.90;;;;;;5052962;28;20209;-74
2023/08/17 05:30:15;;;;;;;1999.90;999.90;;;18.60;99.90;;;;;;5052002;28;20464;-74
2023/08/17 05:32:41;;;;;;;1999.90;999.90;;;18.60;99.90;;;;;;5052305;28;20417;-74
2023/08/17 05:35:07;;;;;;;1999.90;999.90;;;18.60;99.90;;;;;;5052504;28;20460;-74
2023/08/17 05:37:32;;;;;;;1999.90;999.90;;;18.70;99.90;;;;;;5052872;28;20250;-74
2023/08/17 05:39:58;;;;;;;1999.90;999.90;;;18.70;99.90;;;;;;5052640;28;20409;-74
2023/08/17 05:42:24;;;;;;;1999.90;999.90;;;18.80;99.90;;;;;;5052323;28;20178;-74
2023/08/17 05:44:49;;;;;;;1999.90;999.90;;;18.80;99.90;;;;;;5052348;28;20243;-74
2023/08/17 05:47:17;;;;;;;1999.90;999.90;;;18.80;99.90;;;;;;5052448;28;20225;-72
2023/08/17 05:49:43;;;;;;;1999.90;999.90;;;18.70;99.90;;;;;;5052487;28;20166;-72
2023/08/17 05:52:08;;;;;;;1999.90;999.90;;;18.70;99.90;;;;;;5051766;28;20881;-72
2023/08/17 05:54:34;;;;;;;1999.90;999.90;;;18.70;99.90;;;;;;5050849;28;20198;-73
2023/08/17 05:57:00;;;;;;;1999.90;999.90;;;18.60;99.90;;;;;;5052333;28;20180;-73
2023/08/17 05:59:25;;;;;;;1999.90;999.90;;;18.60;99.90;;;;;;5052230;28;20178;-73
2023/08/17 06:01:51;;;;;;;1999.90;999.90;;;18.60;99.90;;;;;;5051995;28;20182;-72
2023/08/17 06:04:16;;;;;;;1999.90;999.90;;;18.70;99.90;;;;;;5052854;28;20209;-74
2023/08/17 06:06:42;;;;;;;1999.90;999.90;;;18.90;99.90;;;;;;5055148;28;20176;-73
2023/08/17 06:09:08;;;;;;;1999.90;999.90;;;18.90;99.90;;;;;;5054215;28;20740;-73
2023/08/17 06:11:34;;;;;;;1999.90;999.90;;;18.90;99.90;;;;;;5053798;28;20180;-73
2023/08/17 06:14:00;;;;;;;1999.90;999.90;;;19.00;99.90;;;;;;5053278;28;20427;-73
2023/08/17 06:16:25;;;;;;;1999.90;999.90;;;19.10;99.90;;;;;;5053789;28;20225;-72
2023/08/17 06:18:51;;;;;;;1999.90;999.90;;;19.00;99.90;;;;;;5054187;28;20174;-74
2023/08/17 06:21:16;;;;;;;1999.90;999.90;;;19.10;99.90;;;;;;5053211;28;20180;-73
2023/08/17 06:23:42;;;;;;;1999.90;999.90;;;19.10;99.90;;;;;;5055356;28;20295;-74
2023/08/17 06:26:08;;;;;;;1999.90;999.90;;;19.20;99.90;;;;;;5055535;28;20516;-72
2023/08/17 06:28:33;;;;;;;1999.90;999.90;;;19.30;99.90;;;;;;5055234;28;20175;-74
2023/08/17 06:30:59;;;;;;;1999.90;999.90;;;19.30;99.90;;;;;;5055376;28;20630;-73
2023/08/17 06:33:25;;;;;;;1999.90;999.90;;;19.20;99.90;;;;;;5054161;28;20169;-73
2023/08/17 06:35:50;;;;;;;1999.90;999.90;;;19.10;99.90;;;;;;5055601;28;20167;-73
2023/08/17 06:38:16;;;;;;;1999.90;999.90;;;19.10;99.90;;;;;;5055564;28;20411;-73
2023/08/17 06:40:42;;;;;;;1999.90;999.90;;;19.20;99.90;;;;;;5055675;28;20193;-73
2023/08/17 06:43:07;;;;;;;1999.90;999.90;;;19.20;99.90;;;;;;5054297;28;20199;-74
2023/08/17 06:45:33;;;;;;;1999.90;999.90;;;19.10;99.90;;;;;;5054582;28;20236;-73
2023/08/17 06:47:59;;;;;;;1999.90;999.90;;;19.20;99.90;;;;;;5055290;28;20600;-73
2023/08/17 06:50:26;;;;;;;1999.90;999.90;;;19.30;99.90;;;;;;5054692;28;20214;-73
2023/08/17 06:52:52;;;;;;;1999.90;999.90;;;19.40;99.90;;;;;;5054776;28;20189;-73
2023/08/17 06:55:18;;;;;;;1999.90;999.90;;;19.50;99.90;;;;;;5055041;28;20418;-73
2023/08/17 06:57:43;;;;;;;1999.90;999.90;;;19.50;99.90;;;;;;5054802;28;20226;-73
2023/08/17 07:00:11;;;;;;;1999.90;999.90;;;19.50;99.90;;;;;;5054830;28;20175;-73
2023/08/17 07:02:36;;;;;;;1999.90;999.90;;;19.60;99.90;;;;;;5054688;28;20277;-73
2023/08/17 07:05:03;;;;;;;1999.90;999.90;;;19.60;99.90;;;;;;5057006;28;20489;-74
2023/08/17 07:07:31;;;;;;;1999.90;999.90;;;19.70;99.90;;;;;;5058558;28;20256;-73
2023/08/17 07:09:57;;;;;;;1999.90;999.90;;;19.80;99.90;;;;;;5058768;28;20394;-73
2023/08/17 07:12:23;;;;;;;1999.90;999.90;;;19.90;99.90;;;;;;5058410;28;20398;-73
2023/08/17 07:14:49;;;;;;;1999.90;999.90;;;19.90;99.90;;;;;;5058536;28;20430;-73
2023/08/17 07:17:15;;;;;;;1999.90;999.90;;;19.70;99.90;;;;;;5057263;28;20804;-72
2023/08/17 07:19:41;;;;;;;1999.90;999.90;;;19.70;99.90;;;;;;5057538;28;20214;-73
2023/08/17 07:22:06;;;;;;;1999.90;999.90;;;19.50;99.90;;;;;;5058035;28;20164;-73
2023/08/17 07:24:32;;;;;;;1999.90;999.90;;;19.50;99.90;;;;;;5056676;28;20284;-73
2023/08/17 07:26:58;;;;;;;1999.90;999.90;;;19.50;99.90;;;;;;5057420;28;20195;-73
2023/08/17 07:29:23;;;;;;;1999.90;999.90;;;19.70;99.90;;;;;;5057815;28;20173;-71
2023/08/17 07:31:49;;;;;;;1999.90;999.90;;;19.70;99.90;;;;;;5057841;28;20196;-73
2023/08/17 07:34:14;;;;;;;1999.90;999.90;;;19.70;99.90;;;;;;5056830;28;20201;-73
2023/08/17 07:36:40;;;;;;;1999.90;999.90;;;19.70;99.90;;;;;;5057612;28;20166;-73
2023/08/17 07:39:06;;;;;;;1999.90;999.90;;;19.80;99.90;;;;;;5057864;28;20648;-72
2023/08/17 07:41:31;;;;;;;1999.90;999.90;;;19.80;99.90;;;;;;5056730;28;20179;-73
2023/08/17 07:43:57;;;;;;;1999.90;999.90;;;19.70;99.90;;;;;;5056928;28;20680;-73
2023/08/17 07:46:23;;;;;;;1999.90;999.90;;;19.70;99.90;;;;;;5057052;28;20637;-73
2023/08/17 07:48:48;;;;;;;1999.90;999.90;;;19.80;99.90;;;;;;5057258;28;20174;-73
2023/08/17 07:51:14;;;;;;;1999.90;999.90;;;19.70;99.90;;;;;;5056254;28;20191;-73
2023/08/17 07:53:40;;;;;;;1999.90;999.90;;;19.70;99.90;;;;;;5056615;28;20184;-71
2023/08/17 07:56:06;;;;;;;1999.90;999.90;;;19.60;99.90;;;;;;5056176;28;20178;-73
2023/08/17 07:58:31;;;;;;;1999.90;999.90;;;19.60;99.90;;;;;;5055869;28;20176;-73
2023/08/17 08:00:57;;;;;;;1999.90;999.90;;;19.60;99.90;;;;;;5055658;28;20662;-73
2023/08/17 08:03:23;;;;;;;1999.90;999.90;;;19.50;99.90;;;;;;5055482;28;20184;-73
2023/08/17 08:05:48;;;;;;;1999.90;999.90;;;19.50;99.90;;;;;;5054415;28;20641;-72
2023/08/17 08:08:14;;;;;;;1999.90;999.90;;;19.50;99.90;;;;;;5055857;28;20242;-73
2023/08/17 08:10:40;;;;;;;1999.90;999.90;;;19.60;99.90;;;;;;5055584;28;20168;-73
2023/08/17 08:13:06;;;;;;;1999.90;999.90;;;19.70;99.90;;;;;;5055050;28;20444;-73
2023/08/17 08:15:33;;;;;;;1999.90;999.90;;;19.70;99.90;;;;;;5042269;28;20423;-72
2023/08/17 08:17:59;;;;;;;1999.90;999.90;;;19.70;99.90;;;;;;5033626;28;20227;-72
2023/08/17 08:20:24;;;;;;;1999.90;999.90;;;19.70;99.90;;;;;;5038593;28;20413;-73
2023/08/17 08:22:50;;;;;;;1999.90;999.90;;;19.90;99.90;;;;;;5053505;28;20179;-72
2023/08/17 08:25:16;;;;;;;1999.90;999.90;;;20.00;99.90;;;;;;5053252;28;20273;-73
2023/08/17 08:27:41;;;;;;;1999.90;999.90;;;20.00;99.90;;;;;;5043392;28;20180;-72
2023/08/17 08:30:07;;;;;;;1999.90;999.90;;;20.00;99.90;;;;;;5049587;28;20318;-70
2023/08/17 08:32:33;;;;;;;1999.90;999.90;;;20.00;99.90;;;;;;5044621;28;20187;-71
2023/08/17 08:34:59;;;;;;;1999.90;999.90;;;20.00;99.90;;;;;;5048145;28;20476;-72
2023/08/17 08:37:24;;;;;;;1999.90;999.90;;;20.20;99.90;;;;;;5049782;28;20179;-72
2023/08/17 08:39:55;;;;;;;1999.90;999.90;;;20.40;99.90;;;;;;5048930;28;20430;-72
2023/08/17 08:42:21;;;;;;;1999.90;999.90;;;20.60;99.90;;;;;;5047603;28;20607;-70
2023/08/17 08:44:47;;;;;;;1999.90;999.90;;;20.80;99.90;;;;;;5048703;28;20919;-73
2023/08/17 08:47:13;;;;;;;1999.90;999.90;;;20.90;99.90;;;;;;5040360;28;20433;-72
2023/08/17 08:49:40;;;;;;;1999.90;999.90;;;20.90;99.90;;;;;;5044035;28;20431;-71
2023/08/17 08:52:14;;;;;;;1999.90;999.90;;;20.90;99.90;;;;;;5042996;28;20421;-71
2023/08/17 08:54:43;;;;;;;1999.90;999.90;;;21.10;99.90;;;;;;5039274;28;20450;-72
2023/08/17 08:57:16;;;;;;;1999.90;999.90;;;21.20;99.90;;;;;;5047017;28;20417;-73
2023/08/17 08:59:45;;;;;;;1999.90;999.90;;;21.30;99.90;;;;;;5045565;28;20412;-72
2023/08/17 09:02:16;;;;;;;1999.90;999.90;;;21.30;99.90;;;;;;5035468;28;20430;-72
2023/08/17 09:04:45;;;;;;;1999.90;999.90;;;21.40;99.90;;;;;;5039880;28;20477;-72
2023/08/17 09:07:13;;;;;;;1999.90;999.90;;;21.40;99.90;;;;;;5046557;28;20422;-72
2023/08/17 09:09:39;;;;;;;1999.90;999.90;;;21.50;99.90;;;;;;5044446;28;20831;-72
2023/08/17 09:12:09;;;;;;;1999.90;999.90;;;21.60;99.90;;;;;;5044593;28;20417;-71
2023/08/17 09:14:37;;;;;;;1999.90;999.90;;;21.70;99.90;;;;;;5046588;28;20191;-70
2023/08/17 09:17:05;;;;;;;1999.90;999.90;;;21.60;99.90;;;;;;5046941;28;20438;-70
2023/08/17 09:19:34;;;;;;;1999.90;999.90;;;21.50;99.90;;;;;;5061015;28;20420;-73
2023/08/17 09:22:02;;;;;;;1999.90;999.90;;;21.40;99.90;;;;;;5059063;28;20416;-71
2023/08/17 09:24:36;;;;;;;1999.90;999.90;;;21.50;99.90;;;;;;5066159;28;20494;-72
2023/08/17 09:27:02;;;;;;;1999.90;999.90;;;21.40;99.90;;;;;;5057125;28;20406;-71
2023/08/17 09:29:31;;;;;;;1999.90;999.90;;;21.30;99.90;;;;;;5053383;28;20462;-71
2023/08/17 09:31:57;;;;;;;1999.90;999.90;;;21.40;99.90;;;;;;5054251;28;20918;-71
2023/08/17 09:34:23;;;;;;;1999.90;999.90;;;21.60;99.90;;;;;;5052074;28;20502;-71
2023/08/17 09:36:48;;;;;;;1999.90;999.90;;;21.70;99.90;;;;;;5051600;28;20416;-71
2023/08/17 09:39:17;;;;;;;1999.90;999.90;;;21.70;99.90;;;;;;5050740;28;20184;-71
2023/08/17 09:41:42;;;;;;;1999.90;999.90;;;21.70;99.90;;;;;;5058239;28;20631;-71
2023/08/17 09:44:09;;;;;;;1999.90;999.90;;;21.40;99.90;;;;;;5051754;28;20490;-72
2023/08/17 09:46:34;;;;;;;1999.90;999.90;;;21.50;99.90;;;;;;5051653;28;20207;-72
2023/08/17 09:49:04;;;;;;;1999.90;999.90;;;21.60;99.90;;;;;;5052118;28;20436;-72
2023/08/17 09:51:30;;;;;;;1999.90;999.90;;;21.80;99.90;;;;;;5051126;28;20595;-71
2023/08/17 09:53:56;;;;;;;1999.90;999.90;;;22.00;99.90;;;;;;5051510;28;20467;-71
2023/08/17 09:56:23;;;;;;;1999.90;999.90;;;22.00;99.90;;;;;;5052013;28;20421;-72
2023/08/17 09:58:50;;;;;;;1999.90;999.90;;;22.00;99.90;;;;;;5055813;28;20258;-71
2023/08/17 10:01:16;;;;;;;1999.90;999.90;;;22.10;99.90;;;;;;5060652;28;20468;-71
2023/08/17 10:03:46;;;;;;;1999.90;999.90;;;22.00;99.90;;;;;;5052043;28;20468;-70
2023/08/17 10:06:15;;;;;;;1999.90;999.90;;;21.90;99.90;;;;;;5053385;28;20957;-71
2023/08/17 10:08:48;;;;;;;1999.90;999.90;;;21.90;99.90;;;;;;5055001;28;20417;-70
2023/08/17 10:11:18;;;;;;;1999.90;999.90;;;21.80;99.90;;;;;;5054363;28;20839;-70
2023/08/17 10:13:52;;;;;;;1999.90;999.90;;;21.90;99.90;;;;;;5051356;28;20432;-70
2023/08/17 10:16:31;;;;;;;1999.90;999.90;;;22.20;99.90;;;;;;5051562;28;20432;-70
2023/08/17 10:19:17;;;;;;;1999.90;999.90;;;22.40;99.90;;;;;;5054898;28;20418;-70
2023/08/17 10:21:48;;;;;;;1999.90;999.90;;;22.50;99.90;;;;;;5050620;28;20394;-71
2023/08/17 10:24:14;;;;;;;1999.90;999.90;;;22.70;99.90;;;;;;5043447;28;20469;-71
2023/08/17 10:26:41;;;;;;;1999.90;999.90;;;22.90;99.90;;;;;;5044271;28;20881;-71
2023/08/17 10:29:07;;;;;;;1999.90;999.90;;;23.10;99.90;;;;;;5047603;28;20425;-71
2023/08/17 10:31:35;;;;;;;1999.90;999.90;;;23.10;99.90;;;;;;5050118;28;20771;-71
2023/08/17 10:34:01;;;;;;;1999.90;999.90;;;23.20;99.90;;;;;;5048363;28;20820;-72
2023/08/17 10:36:29;;;;;;;1999.90;999.90;;;23.30;99.90;;;;;;5045486;28;20438;-71
2023/08/17 10:39:23;;;;;;;1999.90;999.90;;;23.00;99.90;;;;;;5048341;28;20946;-71
2023/08/17 10:41:50;;;;;;;1999.90;999.90;;;23.00;99.90;;;;;;5042669;28;20507;-71
2023/08/17 10:44:18;;;;;;;1999.90;999.90;;;22.90;99.90;;;;;;5049750;28;20662;-71
2023/08/17 10:46:45;;;;;;;1999.90;999.90;;;22.90;99.90;;;;;;5050520;28;20408;-71
2023/08/17 10:49:26;;;;;;;1999.90;999.90;;;22.90;99.90;;;;;;5051095;28;20746;-71
2023/08/17 10:52:07;;;;;;;1999.90;999.90;;;22.80;99.90;;;;;;5050571;28;20398;-71
2023/08/17 10:54:39;;;;;;;1999.90;999.90;;;22.80;99.90;;;;;;5049908;28;20444;-71
2023/08/17 10:57:44;;;;;;;1999.90;999.90;;;22.90;99.90;;;;;;5051152;28;20405;-71
2023/08/17 11:00:31;;;;;;;1999.90;999.90;;;23.00;99.90;;;;;;5050324;28;20417;-71
2023/08/17 11:02:59;;;;;;;1999.90;999.90;;;22.90;99.90;;;;;;5050038;28;20369;-71
2023/08/17 11:05:46;;;;;;;1999.90;999.90;;;22.90;99.90;;;;;;5051050;28;20417;-71
2023/08/17 11:08:21;;;;;;;1999.90;999.90;;;22.90;99.90;;;;;;5052236;28;20413;-71
2023/08/17 11:11:10;;;;;;;1999.90;999.90;;;22.60;99.90;;;;;;5050791;28;20472;-71
2023/08/17 11:13:39;;;;;;;1999.90;999.90;;;22.40;99.90;;;;;;5050718;28;20414;-71
2023/08/17 11:16:06;;;;;;;1999.90;999.90;;;22.40;99.90;;;;;;5050589;28;20399;-71
2023/08/17 11:18:32;;;;;;;1999.90;999.90;;;22.50;99.90;;;;;;5050749;28;20448;-71
2023/08/17 11:20:59;;;;;;;1999.90;999.90;;;22.60;99.90;;;;;;5050224;28;20456;-71
2023/08/17 11:23:28;;;;;;;1999.90;999.90;;;22.40;99.90;;;;;;5050222;28;20519;-71
2023/08/17 11:25:54;;;;;;;1999.90;999.90;;;22.20;99.90;;;;;;5050789;28;20404;-71
2023/08/17 11:28:20;;;;;;;1999.90;999.90;;;22.00;99.90;;;;;;5051103;28;20420;-71
2023/08/17 11:30:57;;;;;;;1999.90;999.90;;;21.90;99.90;;;;;;5050206;28;20408;-71
2023/08/17 11:33:22;;;;;;;1999.90;999.90;;;21.80;99.90;;;;;;5050451;28;20387;-71
2023/08/17 11:35:49;;;;;;;1999.90;999.90;;;21.70;99.90;;;;;;5050941;28;20417;-71
2023/08/17 11:38:15;;;;;;;1999.90;999.90;;;21.50;99.90;;;;;;5050547;28;20217;-71
2023/08/17 11:40:41;;;;;;;1999.90;999.90;;;21.40;99.90;;;;;;5050746;28;20942;-71
2023/08/17 11:43:06;;;;;;;1999.90;999.90;;;21.20;99.90;;;;;;5049605;28;20177;-71
2023/08/17 11:45:33;;;;;;;1999.90;999.90;;;21.20;99.90;;;;;;5049909;28;20258;-71
2023/08/17 11:47:58;;;;;;;1999.90;999.90;;;21.30;99.90;;;;;;5050855;28;20175;-71
2023/08/17 11:50:25;;;;;;;1999.90;999.90;;;21.50;99.90;;;;;;5050981;28;20412;-71
2023/08/17 11:52:51;;;;;;;1999.90;999.90;;;21.60;99.90;;;;;;5052729;28;20244;-71
2023/08/17 11:55:18;;;;;;;1999.90;999.90;;;21.70;99.90;;;;;;5054172;28;20823;-71
2023/08/17 11:57:43;;;;;;;1999.90;999.90;;;21.80;99.90;;;;;;5054074;28;20304;-71